Time;durP1;ratioP1;P1;durP2;ratioP2;P2;SDS_P1;SDS_P2;PMS_P1;PMS_P2;Temp;Humidity;BMP_temperature;BMP_pressure;BME280_temperature;BME280_humidity;BME280_pressure;Samples;Min_cycle;Max_cycle;Signal;HPM_P1;HPM_P2
2023/05/12 00:01:49;;;;;;;9.45;8.45;;;11.60;99.90;;;;;;4946173;29;20048;-85
2023/05/12 00:04:15;;;;;;;9.40;8.00;;;11.60;99.90;;;;;;4946811;28;20044;-86
2023/05/12 00:06:41;;;;;;;8.73;7.70;;;11.60;99.90;;;;;;4948164;29;20166;-85
2023/05/12 00:09:06;;;;;;;9.55;7.40;;;11.90;99.90;;;;;;4951870;29;20491;-86
2023/05/12 00:11:32;;;;;;;9.25;7.90;;;11.60;99.90;;;;;;4933785;29;20135;-86
2023/05/12 00:13:58;;;;;;;9.55;8.30;;;11.60;99.90;;;;;;4932713;29;20418;-86
2023/05/12 00:16:24;;;;;;;8.23;7.38;;;11.70;99.90;;;;;;4945066;29;20088;-85
2023/05/12 00:18:51;;;;;;;9.25;7.88;;;11.60;99.90;;;;;;4944637;29;20426;-86
2023/05/12 00:21:16;;;;;;;10.35;8.70;;;11.60;99.90;;;;;;4931340;29;20043;-85
2023/05/12 00:23:51;;;;;;;10.50;8.52;;;11.70;99.90;;;;;;4943050;29;20406;-86
2023/05/12 00:26:18;;;;;;;12.00;9.65;;;11.60;99.90;;;;;;4934226;29;20486;-85
2023/05/12 00:28:43;;;;;;;14.00;10.80;;;11.70;99.90;;;;;;4947187;29;20027;-85
2023/05/12 00:31:09;;;;;;;16.02;11.15;;;11.70;99.90;;;;;;4929597;29;20483;-86
2023/05/12 00:33:34;;;;;;;13.25;10.93;;;11.70;99.90;;;;;;4950746;29;20050;-86
2023/05/12 00:36:12;;;;;;;12.68;10.50;;;11.70;99.90;;;;;;4941171;29;20402;-86
2023/05/12 00:38:38;;;;;;;16.50;11.20;;;11.70;99.90;;;;;;4929936;29;20047;-85
2023/05/12 00:41:07;;;;;;;14.85;11.85;;;11.80;99.90;;;;;;4934047;29;20106;-85
2023/05/12 00:43:32;;;;;;;19.55;13.13;;;11.70;99.90;;;;;;4947993;29;20043;-86
2023/05/12 00:45:59;;;;;;;16.92;13.32;;;11.90;99.90;;;;;;4932335;29;20035;-85
2023/05/12 00:48:27;;;;;;;19.05;13.98;;;11.70;99.90;;;;;;4931269;29;20043;-85
2023/05/12 00:50:57;;;;;;;21.38;14.68;;;11.80;99.90;;;;;;4949776;29;20098;-86
2023/05/12 00:53:23;;;;;;;22.02;15.82;;;11.70;99.90;;;;;;4935429;29;20051;-86
2023/05/12 00:55:48;;;;;;;22.45;16.40;;;11.70;99.90;;;;;;4930928;29;20129;-85
2023/05/12 00:58:14;;;;;;;24.92;16.75;;;11.70;99.90;;;;;;4951988;29;20118;-86
2023/05/12 01:00:43;;;;;;;28.90;18.33;;;11.70;99.90;;;;;;4946421;29;20043;-86
2023/05/12 01:03:08;;;;;;;27.60;18.83;;;11.70;99.90;;;;;;4930813;29;20049;-86
2023/05/12 01:05:54;;;;;;;33.20;20.77;;;11.70;99.90;;;;;;4948040;29;20039;-86
2023/05/12 01:08:22;;;;;;;30.35;20.55;;;11.70;99.90;;;;;;4964748;28;20135;-85
2023/05/12 01:10:47;;;;;;;31.80;21.20;;;11.70;99.90;;;;;;4931492;29;20046;-86
2023/05/12 01:13:13;;;;;;;36.63;21.85;;;12.00;99.90;;;;;;4949389;29;20036;-86
2023/05/12 01:15:46;;;;;;;42.25;21.98;;;11.70;99.90;;;;;;4933682;29;20417;-85
2023/05/12 01:18:14;;;;;;;38.95;22.15;;;11.70;99.90;;;;;;4943649;29;20043;-85
2023/05/12 01:20:42;;;;;;;38.45;24.00;;;11.70;99.90;;;;;;4933412;29;20046;-85
2023/05/12 01:23:09;;;;;;;41.80;24.85;;;11.70;99.90;;;;;;4947734;29;20039;-85
2023/05/12 01:25:43;;;;;;;41.88;24.92;;;11.70;99.90;;;;;;4943376;29;20102;-85
2023/05/12 01:28:09;;;;;;;44.45;26.13;;;11.80;99.90;;;;;;4929265;29;20039;-87
2023/05/12 01:30:40;;;;;;;54.80;29.00;;;11.70;99.90;;;;;;4933947;29;20047;-85
2023/05/12 01:33:07;;;;;;;59.55;30.42;;;11.70;99.90;;;;;;4926933;29;20031;-85
2023/05/12 01:35:35;;;;;;;55.05;30.33;;;11.80;99.90;;;;;;4933552;29;20035;-85
2023/05/12 01:38:01;;;;;;;58.70;33.22;;;11.70;99.90;;;;;;4932818;29;20443;-85
2023/05/12 01:40:26;;;;;;;62.80;33.28;;;12.20;99.90;;;;;;4945076;29;20042;-85
2023/05/12 01:42:53;;;;;;;58.95;32.53;;;11.70;99.90;;;;;;4928915;29;20039;-85
2023/05/12 01:45:19;;;;;;;63.05;33.47;;;11.80;99.90;;;;;;4947857;29;20039;-86
2023/05/12 01:47:51;;;;;;;63.83;33.67;;;11.70;99.90;;;;;;4930912;29;20039;-85
2023/05/12 01:50:17;;;;;;;61.95;33.33;;;11.80;99.90;;;;;;4932941;29;20546;-86
2023/05/12 01:52:43;;;;;;;65.60;35.05;;;12.50;99.90;;;;;;4931904;29;20126;-85
2023/05/12 01:55:08;;;;;;;59.92;32.95;;;11.80;99.90;;;;;;4948290;29;20565;-86
2023/05/12 01:57:34;;;;;;;68.45;35.60;;;11.80;99.90;;;;;;4948134;29;20043;-85
2023/05/12 02:00:00;;;;;;;60.75;34.40;;;11.80;99.90;;;;;;4948968;29;20043;-86
2023/05/12 02:02:25;;;;;;;82.80;35.78;;;11.80;99.90;;;;;;4929071;29;20035;-86
2023/05/12 02:04:51;;;;;;;68.53;35.40;;;11.90;99.90;;;;;;4946628;29;20070;-86
2023/05/12 02:07:17;;;;;;;71.38;36.00;;;11.80;99.90;;;;;;4934019;29;20035;-85
2023/05/12 02:09:42;;;;;;;68.07;34.75;;;12.00;99.90;;;;;;4934496;29;20178;-86
2023/05/12 02:12:08;;;;;;;62.60;34.28;;;11.80;99.90;;;;;;4933751;29;20035;-85
2023/05/12 02:14:35;;;;;;;57.55;33.15;;;11.90;99.90;;;;;;4962343;28;20379;-86
2023/05/12 02:17:03;;;;;;;61.88;34.65;;;12.00;99.90;;;;;;4932808;29;20046;-86
2023/05/12 02:19:28;;;;;;;67.10;33.78;;;11.90;99.90;;;;;;4947887;29;20085;-85
2023/05/12 02:21:54;;;;;;;67.32;34.78;;;11.90;99.90;;;;;;4947302;29;20039;-86
2023/05/12 02:24:20;;;;;;;60.28;33.22;;;12.00;99.90;;;;;;4945085;28;20483;-86
2023/05/12 02:27:01;;;;;;;64.43;33.95;;;12.00;99.90;;;;;;4949366;29;20491;-86
2023/05/12 02:29:26;;;;;;;61.83;34.40;;;11.90;99.90;;;;;;4947854;29;20027;-87
2023/05/12 02:31:52;;;;;;;83.18;37.15;;;12.00;99.90;;;;;;4931175;29;20046;-86
2023/05/12 02:34:17;;;;;;;61.15;34.13;;;12.00;99.90;;;;;;4945501;29;20039;-86
2023/05/12 02:36:43;;;;;;;65.40;35.00;;;12.00;99.90;;;;;;4940475;29;20044;-86
2023/05/12 02:39:09;;;;;;;56.50;32.13;;;12.00;99.90;;;;;;4930975;29;20071;-86
2023/05/12 02:41:34;;;;;;;64.78;32.72;;;12.00;99.90;;;;;;4934298;29;20043;-86
2023/05/12 02:44:00;;;;;;;54.75;33.00;;;12.00;99.90;;;;;;4931274;29;20481;-86
2023/05/12 02:46:25;;;;;;;56.15;33.83;;;12.50;99.90;;;;;;4933436;29;20719;-86
2023/05/12 02:48:51;;;;;;;59.90;33.17;;;12.10;99.90;;;;;;4960336;28;20040;-85
2023/05/12 02:51:17;;;;;;;63.97;33.22;;;12.10;99.90;;;;;;4953152;29;20134;-85
2023/05/12 02:53:52;;;;;;;71.45;35.20;;;12.10;99.90;;;;;;4938591;29;20118;-87
2023/05/12 02:56:17;;;;;;;56.42;33.15;;;12.10;99.90;;;;;;4952155;29;20114;-87
2023/05/12 02:58:43;;;;;;;61.85;34.70;;;12.00;99.90;;;;;;4947812;29;20046;-85
2023/05/12 03:01:08;;;;;;;68.80;35.67;;;12.10;99.90;;;;;;4937501;29;20545;-87
2023/05/12 03:03:34;;;;;;;71.47;36.53;;;12.80;99.90;;;;;;4938418;29;20051;-85
2023/05/12 03:06:00;;;;;;;56.72;35.05;;;12.30;99.90;;;;;;4934159;29;20161;-86
2023/05/12 03:08:26;;;;;;;57.55;33.28;;;12.20;99.90;;;;;;4950483;29;20044;-87
2023/05/12 03:10:51;;;;;;;70.45;37.40;;;12.00;99.90;;;;;;4953778;29;20031;-86
2023/05/12 03:13:17;;;;;;;66.47;35.53;;;12.10;99.90;;;;;;4937252;29;20051;-86
2023/05/12 03:15:42;;;;;;;66.15;36.88;;;12.10;99.90;;;;;;4953145;29;20054;-86
2023/05/12 03:18:11;;;;;;;57.60;34.75;;;12.10;99.90;;;;;;4953338;28;20046;-87
2023/05/12 03:20:36;;;;;;;62.35;35.45;;;12.10;99.90;;;;;;4949157;29;20106;-87
2023/05/12 03:23:02;;;;;;;62.33;37.35;;;12.10;99.90;;;;;;4935185;29;20031;-85
2023/05/12 03:25:28;;;;;;;77.40;39.80;;;12.40;99.90;;;;;;4953492;29;20035;-87
2023/05/12 03:27:53;;;;;;;67.72;35.95;;;12.10;99.90;;;;;;4935849;29;20043;-86
2023/05/12 03:30:25;;;;;;;67.60;36.42;;;12.10;99.90;;;;;;4932983;29;20141;-85
2023/05/12 03:32:50;;;;;;;69.25;36.40;;;12.10;99.90;;;;;;4953677;28;20043;-86
2023/05/12 03:35:16;;;;;;;69.75;36.80;;;12.10;99.90;;;;;;4952789;29;20039;-86
2023/05/12 03:37:45;;;;;;;80.43;38.40;;;12.20;99.90;;;;;;4952571;29;20118;-86
2023/05/12 03:40:11;;;;;;;65.88;38.15;;;12.10;99.90;;;;;;4932127;29;20169;-85
2023/05/12 03:42:47;;;;;;;65.00;36.13;;;12.20;99.90;;;;;;4933825;29;20043;-85
2023/05/12 03:45:13;;;;;;;81.85;40.03;;;12.20;99.90;;;;;;4936449;29;20562;-86
2023/05/12 03:47:39;;;;;;;104.05;42.95;;;12.20;99.90;;;;;;4952922;29;20042;-86
2023/05/12 03:50:06;;;;;;;70.50;37.88;;;12.30;99.90;;;;;;4938173;29;20627;-87
2023/05/12 03:52:31;;;;;;;97.43;42.88;;;12.20;99.90;;;;;;4936532;29;20410;-87
2023/05/12 03:54:57;;;;;;;81.15;39.88;;;12.20;99.90;;;;;;4952651;29;20043;-86
2023/05/12 03:57:23;;;;;;;81.05;41.17;;;12.30;99.90;;;;;;4936216;29;20991;-86
2023/05/12 03:59:48;;;;;;;68.47;39.03;;;12.20;99.90;;;;;;4952203;28;20094;-86
2023/05/12 04:02:14;;;;;;;80.18;39.58;;;13.00;99.90;;;;;;4950624;29;20047;-86
2023/05/12 04:04:39;;;;;;;79.15;40.00;;;12.20;99.90;;;;;;4935638;29;20090;-86
2023/05/12 04:07:05;;;;;;;82.32;40.47;;;12.20;99.90;;;;;;4947579;29;20039;-86
2023/05/12 04:09:32;;;;;;;99.90;42.95;;;12.20;99.90;;;;;;4943442;29;20502;-87
2023/05/12 04:11:57;;;;;;;76.30;40.00;;;12.20;99.90;;;;;;4936213;29;20690;-86
2023/05/12 04:14:23;;;;;;;86.07;40.67;;;11.90;99.90;;;;;;4952662;29;20090;-86
2023/05/12 04:16:49;;;;;;;73.63;38.67;;;12.50;99.90;;;;;;4949056;29;20043;-87
2023/05/12 04:19:14;;;;;;;69.80;37.30;;;12.20;99.90;;;;;;4935613;29;20152;-85
2023/05/12 04:21:45;;;;;;;73.25;38.85;;;12.20;99.90;;;;;;4948645;29;20039;-86
2023/05/12 04:24:11;;;;;;;70.22;37.85;;;12.20;99.90;;;;;;4965008;28;20043;-86
2023/05/12 04:26:37;;;;;;;69.88;36.83;;;12.10;99.90;;;;;;4935936;29;20065;-86
2023/05/12 04:29:02;;;;;;;64.35;36.35;;;12.20;99.90;;;;;;4936277;29;20047;-87
2023/05/12 04:31:28;;;;;;;69.20;37.90;;;12.10;99.90;;;;;;4950469;29;20039;-86
2023/05/12 04:34:06;;;;;;;64.38;36.63;;;12.20;99.90;;;;;;4949261;29;20419;-87
2023/05/12 04:36:32;;;;;;;63.60;35.67;;;12.20;99.90;;;;;;4950427;29;20505;-86
2023/05/12 04:38:58;;;;;;;67.30;37.40;;;12.20;99.90;;;;;;4934238;29;20069;-85
2023/05/12 04:41:53;;;;;;;64.40;34.75;;;12.30;99.90;;;;;;4951301;29;22095;-84
2023/05/12 04:44:18;;;;;;;66.22;35.97;;;12.40;99.90;;;;;;4946536;29;20042;-85
2023/05/12 04:46:44;;;;;;;56.20;33.05;;;12.90;99.90;;;;;;4934720;29;20059;-85
2023/05/12 04:49:10;;;;;;;53.50;34.42;;;12.30;99.90;;;;;;4951263;29;20071;-87
2023/05/12 04:51:41;;;;;;;54.75;32.97;;;12.30;99.90;;;;;;4933934;29;20053;-88
2023/05/12 04:54:12;;;;;;;59.97;34.63;;;12.30;99.90;;;;;;4928176;29;20043;-89
2023/05/12 04:56:38;;;;;;;63.65;35.35;;;12.40;99.90;;;;;;4950456;29;20084;-88
2023/05/12 04:59:04;;;;;;;60.90;34.63;;;12.40;99.90;;;;;;4950661;29;20503;-86
2023/05/12 05:01:29;;;;;;;63.60;35.05;;;12.40;99.90;;;;;;4953045;29;20035;-88
2023/05/12 05:03:55;;;;;;;61.40;34.45;;;12.60;99.90;;;;;;4950747;29;20577;-87
2023/05/12 05:06:20;;;;;;;58.85;33.83;;;12.40;99.90;;;;;;4947349;29;20047;-88
2023/05/12 05:08:54;;;;;;;63.08;35.03;;;12.40;99.90;;;;;;4950056;29;20050;-87
2023/05/12 05:11:21;;;;;;;53.53;33.03;;;12.40;99.90;;;;;;4930112;28;20428;-87
2023/05/12 05:13:46;;;;;;;57.97;33.30;;;12.40;99.90;;;;;;4930712;29;20479;-86
2023/05/12 05:16:14;;;;;;;53.95;31.33;;;12.40;99.90;;;;;;4933536;29;20047;-85
2023/05/12 05:18:45;;;;;;;57.00;33.47;;;12.40;99.90;;;;;;4948885;29;20050;-86
2023/05/12 05:21:19;;;;;;;63.00;34.88;;;12.40;99.90;;;;;;4933150;29;20050;-86
2023/05/12 05:23:45;;;;;;;75.70;37.30;;;13.00;99.90;;;;;;4948455;29;20035;-86
2023/05/12 05:26:11;;;;;;;57.08;34.40;;;12.40;99.90;;;;;;4944769;29;20043;-85
2023/05/12 05:28:40;;;;;;;70.43;36.97;;;12.40;99.90;;;;;;4947801;29;20392;-87
2023/05/12 05:31:06;;;;;;;65.95;36.13;;;12.30;99.90;;;;;;4951306;29;20047;-88
2023/05/12 05:33:31;;;;;;;65.22;35.78;;;13.00;99.90;;;;;;4948707;29;20043;-87
2023/05/12 05:35:58;;;;;;;63.78;35.88;;;12.80;99.90;;;;;;4950686;29;20070;-85
2023/05/12 05:38:23;;;;;;;78.25;38.67;;;12.60;99.90;;;;;;4949604;29;20043;-86
2023/05/12 05:40:49;;;;;;;54.08;32.33;;;12.80;99.90;;;;;;4948617;28;20130;-86
2023/05/12 05:43:14;;;;;;;64.18;35.08;;;12.50;99.90;;;;;;4948294;29;20035;-86
2023/05/12 05:45:40;;;;;;;57.08;33.78;;;12.50;99.90;;;;;;4950544;29;20118;-86
2023/05/12 05:48:06;;;;;;;60.25;34.95;;;12.60;99.90;;;;;;4950937;29;20031;-86
2023/05/12 05:50:31;;;;;;;56.55;33.38;;;12.50;99.90;;;;;;4929333;29;20119;-87
2023/05/12 05:53:00;;;;;;;54.63;31.88;;;12.60;99.90;;;;;;4934932;29;20051;-86
2023/05/12 05:55:25;;;;;;;57.70;34.42;;;12.70;99.90;;;;;;4931303;29;20035;-88
2023/05/12 05:57:51;;;;;;;58.13;34.40;;;12.70;99.90;;;;;;4948563;29;20630;-87
2023/05/12 06:00:17;;;;;;;56.92;33.22;;;12.70;99.90;;;;;;4946137;29;20095;-87
2023/05/12 06:02:43;;;;;;;54.80;31.90;;;12.70;99.90;;;;;;4933122;29;20475;-86
2023/05/12 06:05:08;;;;;;;57.72;35.72;;;13.20;99.90;;;;;;4949529;29;20122;-87
2023/05/12 06:07:34;;;;;;;63.88;35.00;;;12.70;99.90;;;;;;4949049;29;20043;-88
2023/05/12 06:10:00;;;;;;;50.05;32.50;;;12.80;99.90;;;;;;4946537;29;20070;-87
2023/05/12 06:12:26;;;;;;;55.70;33.28;;;12.70;99.90;;;;;;4932580;29;20036;-88
2023/05/12 06:14:51;;;;;;;51.25;33.38;;;12.90;99.90;;;;;;4944752;29;20035;-88
2023/05/12 06:17:17;;;;;;;62.58;36.40;;;12.80;99.90;;;;;;4930597;29;20047;-87
2023/05/12 06:19:47;;;;;;;53.50;33.08;;;12.90;99.90;;;;;;4933856;29;20122;-87
2023/05/12 06:22:16;;;;;;;60.50;34.63;;;13.00;99.90;;;;;;4946470;28;20075;-88
2023/05/12 06:24:42;;;;;;;50.63;32.85;;;12.90;99.90;;;;;;4947709;29;20126;-88
2023/05/12 06:27:08;;;;;;;56.95;34.90;;;13.50;99.90;;;;;;4948534;29;20126;-88
2023/05/12 06:30:03;;;;;;;54.58;34.05;;;12.80;99.90;;;;;;4928092;29;20552;-88
2023/05/12 06:32:34;;;;;;;53.38;33.22;;;12.90;99.90;;;;;;4949095;28;20043;-88
2023/05/12 06:35:00;;;;;;;52.10;33.47;;;12.80;99.90;;;;;;4946310;29;20044;-87
2023/05/12 06:37:29;;;;;;;51.22;31.75;;;12.80;99.90;;;;;;4931038;29;20043;-88
2023/05/12 06:40:17;;;;;;;64.53;35.92;;;13.00;99.90;;;;;;4952875;28;20051;-87
2023/05/12 06:42:46;;;;;;;62.17;36.15;;;12.80;99.90;;;;;;4936144;29;20399;-87
2023/05/12 06:45:17;;;;;;;57.38;34.53;;;12.90;99.90;;;;;;4931632;29;20055;-87
2023/05/12 06:47:52;;;;;;;61.72;37.28;;;12.90;99.90;;;;;;4953994;28;20442;-87
2023/05/12 06:50:18;;;;;;;52.15;31.88;;;13.00;99.90;;;;;;4953839;28;20402;-86
2023/05/12 06:52:44;;;;;;;54.70;34.90;;;12.50;99.90;;;;;;4954172;28;20039;-86
2023/05/12 06:55:19;;;;;;;53.45;34.50;;;13.00;99.90;;;;;;4952201;29;20046;-87
2023/05/12 06:57:45;;;;;;;61.43;35.77;;;13.40;99.90;;;;;;4935070;29;20051;-87
2023/05/12 07:00:11;;;;;;;55.50;35.20;;;12.90;99.90;;;;;;4952001;29;20398;-87
2023/05/12 07:02:41;;;;;;;61.47;37.08;;;12.90;99.90;;;;;;4949776;29;20122;-87
2023/05/12 07:05:09;;;;;;;65.28;37.35;;;13.00;99.90;;;;;;4933048;29;20035;-87
2023/05/12 07:07:35;;;;;;;58.17;35.30;;;13.00;99.90;;;;;;4952244;29;20520;-86
2023/05/12 07:10:01;;;;;;;53.15;33.83;;;13.00;99.90;;;;;;4952178;29;20121;-87
2023/05/12 07:12:27;;;;;;;50.42;33.60;;;13.00;99.90;;;;;;4951182;29;20043;-86
2023/05/12 07:14:52;;;;;;;52.00;33.65;;;13.00;99.90;;;;;;4953956;29;20074;-87
2023/05/12 07:17:18;;;;;;;50.75;31.52;;;13.00;99.90;;;;;;4950215;28;20036;-87
2023/05/12 07:19:46;;;;;;;48.05;31.67;;;13.30;99.90;;;;;;4952425;29;20478;-86
2023/05/12 07:22:12;;;;;;;47.50;33.28;;;13.20;99.90;;;;;;4934181;29;20050;-86
2023/05/12 07:24:40;;;;;;;44.35;31.08;;;14.00;99.90;;;;;;4953107;29;20039;-87
2023/05/12 07:27:07;;;;;;;45.42;31.33;;;13.60;99.90;;;;;;4953274;28;20767;-86
2023/05/12 07:29:32;;;;;;;49.60;33.92;;;13.30;99.90;;;;;;4954513;28;20142;-87
2023/05/12 07:31:58;;;;;;;46.78;31.05;;;13.60;99.90;;;;;;4932966;29;20130;-86
2023/05/12 07:34:33;;;;;;;44.17;31.45;;;13.40;99.90;;;;;;4953280;28;20466;-88
2023/05/12 07:37:02;;;;;;;44.65;31.85;;;13.40;99.90;;;;;;4933535;29;20047;-88
2023/05/12 07:39:37;;;;;;;42.63;32.40;;;13.40;99.90;;;;;;4952503;28;20043;-86
2023/05/12 07:42:05;;;;;;;46.43;32.33;;;13.50;99.90;;;;;;4952285;29;20039;-87
2023/05/12 07:44:32;;;;;;;45.03;31.08;;;13.60;99.90;;;;;;4936396;29;20114;-86
2023/05/12 07:46:58;;;;;;;39.33;29.50;;;13.80;99.90;;;;;;4948652;29;20051;-86
2023/05/12 07:49:23;;;;;;;39.67;30.02;;;13.80;99.90;;;;;;4962988;28;20434;-86
2023/05/12 07:51:49;;;;;;;39.67;27.67;;;14.00;99.90;;;;;;4949061;29;20063;-86
2023/05/12 07:54:41;;;;;;;;;;;;;;;;;;;;;
2023/05/12 07:57:30;;;;;;;41.80;28.33;;;13.80;99.90;;;;;;4951703;29;20051;-87
2023/05/12 08:00:06;;;;;;;38.83;29.17;;;13.80;99.90;;;;;;4934157;29;20035;-86
2023/05/12 08:02:52;;;;;;;34.65;27.20;;;13.70;99.90;;;;;;4945825;29;20766;-87
2023/05/12 08:05:23;;;;;;;32.50;27.60;;;14.10;99.90;;;;;;4935023;29;20126;-87
2023/05/12 08:07:49;;;;;;;31.08;25.85;;;14.20;99.90;;;;;;4936259;28;20038;-88
2023/05/12 08:10:28;;;;;;;29.65;25.65;;;14.40;99.90;;;;;;4968421;28;20043;-86
2023/05/12 08:13:26;;;;;;;29.75;25.77;;;14.60;99.90;;;;;;4951799;28;20100;-87
2023/05/12 08:16:22;;;;;;;;;;;;;;;;;;;;;
2023/05/12 08:24:53;;;;;;;29.38;25.63;;;14.80;99.90;;;;;;4961166;28;20045;-88
2023/05/12 08:27:21;;;;;;;28.98;25.73;;;14.70;99.90;;;;;;4971882;28;20046;-87
2023/05/12 11:16:50;;;;;;;13.23;11.98;;;21.20;99.90;;;;;;3346071;26;19932;-87
2023/05/12 11:20:13;;;;;;;11.75;10.60;;;21.40;99.90;;;;;;4993441;28;20151;-86
2023/05/12 13:31:39;;;;;;;2.42;1.83;;;22.10;99.90;;;;;;4946649;28;20461;-84
2023/05/12 13:54:43;;;;;;;3.42;1.65;;;21.10;99.90;;;;;;4911729;29;20096;-84
2023/05/12 13:57:54;;;;;;;3.78;1.38;;;21.20;99.90;;;;;;4888981;29;20046;-82
2023/05/12 14:00:20;;;;;;;3.10;1.83;;;21.50;99.90;;;;;;4870287;29;20060;-82
2023/05/12 14:02:46;;;;;;;3.63;1.38;;;21.60;99.90;;;;;;4945355;28;20051;-82
2023/05/12 14:05:12;;;;;;;3.58;1.20;;;21.70;99.90;;;;;;4933283;29;20035;-82
2023/05/12 14:07:38;;;;;;;3.40;1.38;;;21.70;99.90;;;;;;4947216;29;20509;-84
2023/05/12 14:10:04;;;;;;;2.83;1.48;;;21.90;99.90;;;;;;4951501;29;20090;-84
2023/05/12 14:12:29;;;;;;;6.47;1.30;;;21.50;99.90;;;;;;4953126;28;20050;-83
2023/05/12 14:14:55;;;;;;;2.92;1.35;;;21.70;99.90;;;;;;4950199;28;20070;-84
2023/05/12 14:17:22;;;;;;;6.25;1.55;;;21.20;99.90;;;;;;4948429;29;20031;-85
2023/05/12 14:19:47;;;;;;;3.35;1.35;;;21.10;99.90;;;;;;4964777;28;20178;-84
2023/05/12 14:22:13;;;;;;;2.80;1.55;;;21.10;99.90;;;;;;4932481;29;20504;-85
2023/05/12 14:24:40;;;;;;;3.58;1.70;;;21.00;99.90;;;;;;4950934;28;20158;-84
2023/05/12 14:27:08;;;;;;;1.52;1.40;;;21.30;99.90;;;;;;4951800;28;20050;-84
2023/05/12 14:29:34;;;;;;;4.32;1.55;;;21.30;99.90;;;;;;4948670;29;20490;-83
2023/05/12 14:32:01;;;;;;;5.03;1.38;;;21.50;99.90;;;;;;4946381;28;20046;-84
2023/05/12 14:34:27;;;;;;;3.03;1.40;;;21.40;99.90;;;;;;4949242;28;20065;-84
2023/05/12 14:41:29;;;;;;;3.33;1.42;;;21.30;99.90;;;;;;4921704;29;20156;-84
2023/05/12 14:44:26;;;;;;;8.32;2.03;;;21.10;99.90;;;;;;4923115;28;20039;-85
2023/05/12 14:46:56;;;;;;;1.88;1.60;;;21.10;99.90;;;;;;4945273;29;20086;-83
2023/05/12 14:49:24;;;;;;;3.17;1.58;;;21.20;99.90;;;;;;4933223;28;20059;-84
2023/05/12 14:51:57;;;;;;;2.47;1.40;;;20.90;99.90;;;;;;4953234;28;20047;-84
2023/05/12 14:54:23;;;;;;;2.88;1.33;;;20.90;99.90;;;;;;4970302;28;20039;-84
2023/05/12 14:56:49;;;;;;;5.25;1.58;;;21.60;99.90;;;;;;4953063;28;20493;-84
2023/05/12 14:59:17;;;;;;;4.75;1.25;;;21.10;99.90;;;;;;4935242;29;20042;-84
2023/05/12 15:01:42;;;;;;;2.30;1.23;;;20.80;99.90;;;;;;4968169;28;20047;-84
2023/05/12 15:04:08;;;;;;;4.55;1.58;;;20.80;99.90;;;;;;4935904;29;20699;-83
2023/05/12 15:06:34;;;;;;;2.55;1.05;;;21.00;99.90;;;;;;4966394;28;20513;-84
2023/05/12 15:09:06;;;;;;;2.83;1.15;;;20.80;99.90;;;;;;4951816;28;20043;-84
2023/05/12 15:11:32;;;;;;;4.47;1.33;;;20.80;99.90;;;;;;4952172;28;20432;-83
2023/05/12 15:23:48;;;;;;;2.47;0.93;;;20.80;99.90;;;;;;4960604;28;20087;-83
2023/05/12 15:26:13;;;;;;;4.95;1.83;;;20.80;99.90;;;;;;4981815;28;20034;-83
2023/05/12 15:28:39;;;;;;;2.65;1.75;;;20.90;99.90;;;;;;4984654;28;20042;-84
2023/05/12 15:31:04;;;;;;;1.95;1.55;;;20.80;99.90;;;;;;4985685;28;20117;-84
2023/05/12 15:33:33;;;;;;;6.60;1.15;;;20.90;99.90;;;;;;4966370;28;20058;-85
2023/05/12 15:36:03;;;;;;;3.28;1.15;;;20.90;99.90;;;;;;4962351;28;20134;-85
2023/05/12 15:38:29;;;;;;;4.22;1.27;;;20.80;99.90;;;;;;4968935;28;20366;-84
2023/05/12 15:40:55;;;;;;;3.63;1.10;;;20.90;99.90;;;;;;4952820;28;20082;-86
2023/05/12 15:43:20;;;;;;;5.13;1.10;;;20.70;99.90;;;;;;4970210;28;20047;-85
2023/05/12 15:45:47;;;;;;;2.50;1.40;;;20.60;99.90;;;;;;4966699;28;20051;-83
2023/05/12 15:48:13;;;;;;;2.28;1.33;;;20.70;99.90;;;;;;4967990;28;20054;-86
2023/05/12 16:16:04;;;;;;;6.80;1.77;;;21.40;99.90;;;;;;4964455;28;20046;-84
2023/05/12 16:18:30;;;;;;;2.08;1.60;;;21.30;99.90;;;;;;4963658;28;20053;-84
2023/05/12 16:20:57;;;;;;;4.95;1.73;;;21.10;99.90;;;;;;4962270;28;20125;-84
2023/05/12 16:23:23;;;;;;;4.85;2.00;;;21.00;99.90;;;;;;4968129;28;20051;-84
2023/05/12 16:25:49;;;;;;;5.53;1.70;;;20.90;99.90;;;;;;4968736;28;20043;-85
2023/05/12 16:28:15;;;;;;;5.03;1.92;;;20.80;99.90;;;;;;4966879;28;20057;-84
2023/05/12 16:30:40;;;;;;;6.03;1.70;;;20.60;99.90;;;;;;4970085;28;21350;-85
2023/05/12 16:33:06;;;;;;;6.82;1.90;;;20.50;99.90;;;;;;4971128;28;20082;-85
2023/05/12 16:35:32;;;;;;;3.63;1.83;;;20.40;99.90;;;;;;4965883;28;20370;-84
2023/05/12 16:37:57;;;;;;;2.95;1.40;;;20.30;99.90;;;;;;4970924;28;20097;-85
2023/05/12 16:40:23;;;;;;;1.88;1.67;;;20.20;99.90;;;;;;4967261;28;20035;-84
2023/05/12 16:42:49;;;;;;;4.65;1.92;;;20.20;99.90;;;;;;4954213;28;20050;-83
2023/05/12 16:45:15;;;;;;;4.07;2.05;;;20.10;99.90;;;;;;4971013;28;20093;-83
2023/05/12 16:47:41;;;;;;;2.08;1.38;;;20.10;99.90;;;;;;4967086;28;20162;-83
2023/05/12 16:50:07;;;;;;;2.50;1.83;;;20.00;99.90;;;;;;4969328;28;20039;-83
2023/05/12 16:52:33;;;;;;;3.33;1.40;;;20.00;99.90;;;;;;4971697;28;20563;-82
2023/05/12 16:54:59;;;;;;;2.88;1.80;;;20.00;99.90;;;;;;4965631;28;20121;-83
2023/05/12 16:57:25;;;;;;;3.53;1.95;;;20.10;99.90;;;;;;4968166;28;20039;-83
2023/05/12 16:59:50;;;;;;;2.95;1.77;;;20.20;99.90;;;;;;4966556;28;20054;-82
2023/05/12 17:02:16;;;;;;;2.13;1.45;;;20.20;99.90;;;;;;4972472;28;20045;-83
2023/05/12 17:04:42;;;;;;;2.20;1.67;;;20.30;99.90;;;;;;4981566;28;20049;-84
2023/05/12 17:07:08;;;;;;;3.55;1.05;;;20.50;99.90;;;;;;4987617;28;20031;-83
2023/05/12 17:09:34;;;;;;;2.38;1.20;;;20.50;99.90;;;;;;4966774;28;20031;-84
2023/05/12 17:11:59;;;;;;;2.40;2.08;;;20.70;99.90;;;;;;4969914;28;20046;-83
2023/05/12 17:14:25;;;;;;;3.67;2.10;;;20.70;99.90;;;;;;4963001;28;20046;-83
2023/05/12 17:16:51;;;;;;;2.60;1.95;;;20.70;99.90;;;;;;4963574;28;20066;-85
2023/05/12 17:19:16;;;;;;;6.82;2.63;;;20.70;99.90;;;;;;4968545;28;20046;-83
2023/05/12 17:21:42;;;;;;;5.75;2.00;;;20.50;99.90;;;;;;4967699;28;20449;-84
2023/05/12 17:24:08;;;;;;;4.15;2.75;;;20.50;99.90;;;;;;4963955;28;20047;-83
2023/05/12 17:26:34;;;;;;;6.50;2.08;;;20.40;99.90;;;;;;4970879;28;20033;-83
2023/05/12 17:29:00;;;;;;;4.72;2.15;;;20.40;99.90;;;;;;4969856;28;20045;-83
2023/05/12 17:31:26;;;;;;;4.80;2.85;;;20.30;99.90;;;;;;4987049;28;20038;-84
2023/05/12 17:33:52;;;;;;;5.50;3.20;;;20.20;99.90;;;;;;4970329;28;20669;-83
2023/05/12 17:36:18;;;;;;;4.53;2.75;;;20.20;99.90;;;;;;4970612;28;20058;-83
2023/05/12 17:38:43;;;;;;;5.18;3.03;;;20.10;99.90;;;;;;4966831;28;20066;-83
2023/05/12 17:41:09;;;;;;;4.03;3.50;;;20.10;99.90;;;;;;4965168;28;20043;-83
2023/05/12 17:43:35;;;;;;;6.72;3.67;;;20.00;99.90;;;;;;4968525;28;20760;-83
2023/05/12 17:46:00;;;;;;;10.77;3.95;;;20.00;99.90;;;;;;4965360;28;20043;-84
2023/05/12 17:48:26;;;;;;;4.82;4.00;;;19.90;99.90;;;;;;4984378;28;20035;-83
2023/05/12 17:50:52;;;;;;;8.30;3.75;;;19.90;99.90;;;;;;4970831;28;20039;-82
2023/05/12 17:53:17;;;;;;;10.70;4.32;;;19.80;99.90;;;;;;4968918;28;20035;-83
2023/05/12 17:55:43;;;;;;;6.78;3.42;;;19.70;99.90;;;;;;4969963;28;20040;-83
2023/05/12 17:58:08;;;;;;;4.75;3.03;;;19.60;99.90;;;;;;4968514;28;20031;-82
2023/05/12 18:00:34;;;;;;;4.25;3.05;;;19.50;99.90;;;;;;4970476;28;20412;-83
2023/05/12 18:03:00;;;;;;;6.35;3.00;;;19.50;99.90;;;;;;4968669;28;20039;-82
2023/05/12 18:05:25;;;;;;;3.95;3.03;;;19.40;99.90;;;;;;4966246;28;20035;-83
2023/05/12 18:07:51;;;;;;;4.40;3.20;;;19.40;99.90;;;;;;4966741;28;20045;-84
2023/05/12 18:10:18;;;;;;;5.45;2.75;;;19.30;99.90;;;;;;4970828;28;20116;-83
2023/05/12 18:12:43;;;;;;;6.97;2.88;;;19.20;99.90;;;;;;4967233;28;20042;-82
2023/05/12 18:15:09;;;;;;;9.60;3.50;;;19.20;99.90;;;;;;4969598;28;20524;-83
2023/05/12 18:17:35;;;;;;;4.43;2.90;;;19.10;99.90;;;;;;4960379;28;20058;-84
2023/05/12 18:20:02;;;;;;;7.90;3.00;;;19.00;99.90;;;;;;4966610;28;20049;-83
2023/05/12 18:22:28;;;;;;;4.53;3.28;;;18.90;99.90;;;;;;4956696;28;20626;-84
2023/05/12 18:24:54;;;;;;;7.28;3.00;;;19.30;99.90;;;;;;4973159;28;20047;-84
2023/05/12 18:27:19;;;;;;;4.65;3.40;;;19.10;99.90;;;;;;4965382;28;20053;-83
2023/05/12 18:29:45;;;;;;;3.17;2.70;;;18.80;99.90;;;;;;4970514;28;20047;-84
2023/05/12 18:32:11;;;;;;;6.70;2.90;;;18.80;99.90;;;;;;4967192;28;20039;-84
2023/05/12 18:34:36;;;;;;;6.75;2.60;;;18.70;99.90;;;;;;4969930;28;20100;-83
2023/05/12 18:37:02;;;;;;;7.20;2.65;;;18.70;99.90;;;;;;4970500;28;20133;-83
2023/05/12 18:39:28;;;;;;;6.82;2.75;;;18.70;99.90;;;;;;4970564;28;20051;-83
2023/05/12 18:41:53;;;;;;;7.13;2.88;;;18.60;99.90;;;;;;4970300;28;20054;-83